createdAt,value
2022-12-24T00:05:01.290Z,96852.00
2022-12-24T00:10:08.481Z,96874.00
2022-12-24T00:15:11.860Z,96883.00
2022-12-24T00:20:14.886Z,96876.00
2022-12-24T00:25:17.948Z,96882.00
2022-12-24T00:30:20.904Z,96887.00
2022-12-24T00:35:24.882Z,96879.00
2022-12-24T00:40:28.134Z,96887.00
2022-12-24T00:45:31.213Z,96905.00
2022-12-24T00:50:34.218Z,96909.00
2022-12-24T00:55:37.467Z,96913.00
2022-12-24T01:00:40.436Z,96923.00
2022-12-24T01:05:48.675Z,96924.00
2022-12-24T01:10:59.051Z,96929.00
2022-12-24T01:16:36.455Z,96939.00
2022-12-24T01:21:54.852Z,96940.00
2022-12-24T01:27:21.187Z,96949.00
2022-12-24T01:32:37.224Z,96948.00
2022-12-24T01:37:59.337Z,96956.00
2022-12-24T01:43:31.422Z,96970.00
2022-12-24T01:49:21.952Z,96963.00
2022-12-24T01:54:37.119Z,96970.00
2022-12-24T01:59:46.516Z,96984.00
2022-12-24T02:05:40.167Z,97001.00
2022-12-24T02:10:56.913Z,97000.00
2022-12-24T02:16:29.556Z,96989.00
2022-12-24T02:22:17.135Z,96990.00
2022-12-24T02:27:58.878Z,97006.00
2022-12-24T02:33:27.192Z,97005.00
2022-12-24T02:38:49.923Z,97021.00
2022-12-24T02:44:17.653Z,97025.00
2022-12-24T02:49:31.959Z,97029.00
2022-12-24T02:54:41.474Z,97043.00
2022-12-24T02:59:57.396Z,97053.00
2022-12-24T03:05:45.313Z,97059.00
2022-12-24T03:11:35.930Z,97071.00
2022-12-24T03:17:21.172Z,97077.00
2022-12-24T03:22:44.444Z,97087.00
2022-12-24T03:27:57.879Z,97094.00
2022-12-24T03:33:22.535Z,97104.00
2022-12-24T03:38:50.976Z,97108.00
2022-12-24T03:44:08.247Z,97120.00
2022-12-24T03:49:24.066Z,97117.00
2022-12-24T03:54:33.600Z,97130.00
2022-12-24T03:59:42.764Z,97145.00
2022-12-24T04:05:01.320Z,97151.00
2022-12-24T04:10:07.223Z,97156.00
2022-12-24T04:15:10.661Z,97163.00
2022-12-24T04:20:14.044Z,97183.00
2022-12-24T04:25:17.150Z,97196.00
2022-12-24T04:30:20.308Z,97196.00
2022-12-24T04:35:23.383Z,97198.00
2022-12-24T04:40:26.477Z,97214.00
2022-12-24T04:45:29.488Z,97224.00
2022-12-24T04:50:32.561Z,97220.00
2022-12-24T04:55:35.528Z,97224.00
2022-12-24T05:00:38.590Z,97233.00
2022-12-24T05:06:01.261Z,97241.00
2022-12-24T05:11:12.684Z,97237.00
2022-12-24T05:16:38.330Z,97253.00
2022-12-24T05:22:33.408Z,97263.00
2022-12-24T05:27:54.439Z,97282.00
2022-12-24T05:33:23.928Z,97287.00
2022-12-24T05:39:00.183Z,97290.00
2022-12-24T05:44:18.686Z,97304.00
2022-12-24T05:49:28.476Z,97321.00
2022-12-24T05:54:38.194Z,97333.00
2022-12-24T05:59:48.271Z,97348.00
2022-12-24T06:05:04.658Z,97354.00
2022-12-24T06:10:11.920Z,97358.00
2022-12-24T06:15:20.266Z,97375.00
2022-12-24T06:20:26.671Z,97367.00
2022-12-24T06:25:29.733Z,97375.00
2022-12-24T06:30:32.874Z,97385.00
2022-12-24T06:35:35.877Z,97395.00
2022-12-24T06:40:43.540Z,97395.00
2022-12-24T06:45:48.063Z,97402.00
2022-12-24T06:50:59.014Z,97418.00
2022-12-24T06:56:31.059Z,97430.00
2022-12-24T07:02:02.742Z,97442.00
2022-12-24T07:07:21.429Z,97454.00
2022-12-24T07:12:40.909Z,97460.00
2022-12-24T07:17:58.918Z,97465.00
2022-12-24T07:23:21.802Z,97475.00
2022-12-24T07:28:29.855Z,97481.00
2022-12-24T07:33:47.370Z,97495.00
2022-12-24T07:39:04.137Z,97496.00
2022-12-24T07:44:25.058Z,97490.00
2022-12-24T07:49:37.631Z,97512.00
2022-12-24T07:54:47.108Z,97513.00
2022-12-24T07:59:53.799Z,97515.00
2022-12-24T08:05:15.722Z,97522.00
2022-12-24T08:10:34.651Z,97533.00
2022-12-24T08:15:58.945Z,97542.00
2022-12-24T08:21:10.675Z,97545.00
2022-12-24T08:26:31.936Z,97540.00
2022-12-24T08:37:33.975Z,97548.00
2022-12-24T08:43:14.262Z,97557.00
2022-12-24T08:48:20.677Z,97554.00
2022-12-24T08:53:38.485Z,97568.00
2022-12-24T08:59:08.586Z,97568.00
2022-12-24T09:04:32.761Z,97569.00
2022-12-24T09:09:40.627Z,97572.00
2022-12-24T09:14:56.948Z,97582.00
2022-12-24T09:20:07.165Z,97577.00
2022-12-24T09:25:10.795Z,97586.00
2022-12-24T09:30:14.468Z,97599.00
2022-12-24T09:35:17.609Z,97607.00
2022-12-24T09:40:29.316Z,97615.00
2022-12-24T09:45:38.739Z,97614.00
2022-12-24T09:51:32.960Z,97635.00
2022-12-24T09:56:48.567Z,97641.00
2022-12-24T10:02:13.736Z,97664.00
2022-12-24T10:07:50.271Z,97669.00
2022-12-24T10:13:39.612Z,97664.00
2022-12-24T10:19:08.139Z,97667.00
2022-12-24T10:24:49.835Z,97658.00
2022-12-24T10:30:19.870Z,97668.00
2022-12-24T10:35:36.922Z,97666.00
2022-12-24T10:40:44.767Z,97672.00
2022-12-24T10:46:09.076Z,97686.00
2022-12-24T10:51:50.128Z,97690.00
2022-12-24T10:57:15.596Z,97696.00
2022-12-24T11:03:01.014Z,97697.00
2022-12-24T11:08:33.600Z,97703.00
2022-12-24T11:14:10.643Z,97717.00
2022-12-24T11:19:42.881Z,97713.00
2022-12-24T11:24:50.087Z,97707.00
2022-12-24T11:29:53.349Z,97721.00
2022-12-24T11:34:56.324Z,97723.00
2022-12-24T11:40:02.520Z,97731.00
2022-12-24T11:45:16.959Z,97733.00
2022-12-24T11:50:35.991Z,97741.00
2022-12-24T11:56:24.140Z,97737.00
2022-12-24T12:02:12.386Z,97746.00
2022-12-24T12:07:28.155Z,97752.00
2022-12-24T12:13:14.922Z,97750.00
2022-12-24T12:18:49.102Z,97753.00
2022-12-24T12:24:13.009Z,97759.00
2022-12-24T12:29:37.510Z,97754.00
2022-12-24T12:35:03.882Z,97766.00
2022-12-24T12:40:15.500Z,97755.00
2022-12-24T12:45:33.686Z,97754.00
2022-12-24T12:50:59.822Z,97751.00
2022-12-24T12:56:53.574Z,97770.00
2022-12-24T13:02:50.948Z,97759.00
2022-12-24T13:08:11.233Z,97755.00
2022-12-24T13:13:37.315Z,97761.00
2022-12-24T13:19:01.645Z,97748.00
2022-12-24T13:24:29.896Z,97759.00
2022-12-24T13:29:40.581Z,97767.00
2022-12-24T13:34:59.620Z,97771.00
2022-12-24T13:40:26.099Z,97790.00
2022-12-24T13:45:42.020Z,97792.00
2022-12-24T13:51:05.039Z,97794.00
2022-12-24T13:56:26.192Z,97794.00
2022-12-24T14:01:56.680Z,97793.00
2022-12-24T14:13:37.690Z,97817.00
2022-12-24T14:19:05.603Z,97830.00
2022-12-24T14:24:18.337Z,97820.00
2022-12-24T14:29:40.930Z,97829.00
2022-12-24T14:34:45.669Z,97829.00
2022-12-24T14:39:57.058Z,97844.00
2022-12-24T14:45:07.665Z,97847.00
2022-12-24T14:50:28.775Z,97850.00
2022-12-24T14:55:42.837Z,97855.00
2022-12-24T15:00:46.166Z,97865.00
2022-12-24T15:06:27.387Z,97873.00
2022-12-24T15:11:38.704Z,97871.00
2022-12-24T15:17:00.787Z,97892.00
2022-12-24T15:22:49.164Z,97893.00
2022-12-24T15:28:12.913Z,97888.00
2022-12-24T15:33:25.586Z,97913.00
2022-12-24T15:38:45.243Z,97918.00
2022-12-24T15:44:08.418Z,97912.00
2022-12-24T15:49:24.938Z,97935.00
2022-12-24T15:54:33.352Z,97933.00
2022-12-24T15:59:43.306Z,97944.00
2022-12-24T16:05:19.620Z,97949.00
2022-12-24T16:10:26.584Z,97960.00
2022-12-24T16:15:30.572Z,97958.00
2022-12-24T16:20:34.110Z,97957.00
2022-12-24T16:25:37.264Z,97968.00
2022-12-24T16:30:40.605Z,97957.00
2022-12-24T16:35:44.821Z,97973.00
2022-12-24T16:40:48.237Z,97967.00
2022-12-24T16:46:29.326Z,97962.00
2022-12-24T16:51:43.572Z,97976.00
2022-12-24T16:56:55.644Z,97977.00
2022-12-24T17:02:14.707Z,97978.00
2022-12-24T17:07:29.443Z,97974.00
2022-12-24T17:12:37.808Z,97984.00
2022-12-24T17:18:07.907Z,97978.00
2022-12-24T17:23:13.784Z,98003.00
2022-12-24T17:28:27.241Z,98009.00
2022-12-24T17:33:48.805Z,98004.00
2022-12-24T17:39:12.319Z,98010.00
2022-12-24T17:44:25.258Z,98017.00
2022-12-24T17:49:36.948Z,98030.00
2022-12-24T17:54:45.037Z,98028.00
2022-12-24T17:59:49.354Z,98037.00
2022-12-24T18:05:04.298Z,98023.00
2022-12-24T18:10:10.533Z,98031.00
2022-12-24T18:15:13.549Z,98041.00
2022-12-24T18:20:16.631Z,98056.00
2022-12-24T18:25:21.507Z,98066.00
2022-12-24T18:30:27.860Z,98079.00
2022-12-24T18:35:33.839Z,98071.00
2022-12-24T18:40:38.007Z,98071.00
2022-12-24T18:45:42.428Z,98070.00
2022-12-24T18:51:00.345Z,98073.00
2022-12-24T18:56:34.318Z,98083.00
2022-12-24T19:02:20.040Z,98088.00
2022-12-24T19:07:35.325Z,98091.00
2022-12-24T19:12:52.032Z,98094.00
2022-12-24T19:18:15.311Z,98088.00
2022-12-24T19:23:30.811Z,98105.00
2022-12-24T19:28:55.787Z,98113.00
2022-12-24T19:34:10.702Z,98110.00
2022-12-24T19:39:15.716Z,98114.00
2022-12-24T19:44:26.440Z,98115.00
2022-12-24T19:49:36.397Z,98113.00
2022-12-24T19:54:40.438Z,98116.00
2022-12-24T19:59:43.427Z,98116.00
2022-12-24T20:04:46.435Z,98114.00
2022-12-24T20:10:16.817Z,98116.00
2022-12-24T20:15:25.395Z,98125.00
2022-12-24T20:20:29.119Z,98121.00
2022-12-24T20:25:35.787Z,98136.00
2022-12-24T20:30:40.580Z,98138.00
2022-12-24T20:35:43.583Z,98149.00
2022-12-24T20:40:49.928Z,98157.00
2022-12-24T20:46:27.128Z,98165.00
2022-12-24T20:51:52.957Z,98157.00
2022-12-24T20:57:11.611Z,98161.00
2022-12-24T21:02:31.716Z,98170.00
2022-12-24T21:07:39.187Z,98165.00
2022-12-24T21:13:14.315Z,98167.00
2022-12-24T21:18:30.857Z,98160.00
2022-12-24T21:23:47.438Z,98156.00
2022-12-24T21:28:54.600Z,98161.00
2022-12-24T21:34:03.223Z,98163.00
2022-12-24T21:39:16.811Z,98173.00
2022-12-24T21:44:25.645Z,98166.00
2022-12-24T21:49:50.862Z,98178.00
2022-12-24T21:54:53.888Z,98188.00
2022-12-24T22:00:19.138Z,98178.00
2022-12-24T22:05:43.706Z,98172.00
2022-12-24T22:16:51.763Z,98185.00
2022-12-24T22:22:16.986Z,98181.00
2022-12-24T22:27:41.998Z,98197.00
2022-12-24T22:33:12.855Z,98204.00
2022-12-24T22:38:19.297Z,98207.00
2022-12-24T22:43:29.031Z,98205.00
2022-12-24T22:48:55.082Z,98215.00
2022-12-24T22:54:14.646Z,98213.00
2022-12-24T22:59:22.489Z,98219.00
2022-12-24T23:04:48.104Z,98224.00
2022-12-24T23:10:18.239Z,98243.00
2022-12-24T23:15:36.902Z,98259.00
2022-12-24T23:21:02.388Z,98268.00
2022-12-24T23:26:27.660Z,98262.00
2022-12-24T23:31:43.354Z,98238.00
2022-12-24T23:37:10.477Z,98241.00
2022-12-24T23:42:44.452Z,98258.00
2022-12-24T23:48:07.303Z,98260.00
2022-12-24T23:53:26.723Z,98261.00
2022-12-24T23:58:45.669Z,98253.00
